METAR Reports

 

EHEH - Eindhoven Airport, Eindhoven, NL
Distance from station: W 30km
Updated: 18/06/2018 14:55
Meestal bewolkt
Meestal bewolkt
 Wind van ZW
Wind: ZW 22 km/h
Temperatuur: 18°C
Dauwpunt: 16°C
Vochtigheid: 88%
Barometer: 1020 hPa
Clouds: Meestal bewolkt
Visibility: 10 km
Cloud details: Few Clouds 457 m
Meestal bewolkt 579 m
Meestal bewolkt 671 m
2018/06/18 12:55 EHEH 181255Z AUTO 22012KT 180V270 9999 FEW015 BKN019 BKN022 18/16 Q1020 WHT 23012KT 9999 FEW008 SCT012 OVC015 TEMPO 4000 -DZ FEW006 SCT008 BKN012
EHVK - Volkel Airoprt, Volkel, NL
Distance from station: NO 30km
Updated: 18/06/2018 15:25
Zwaar bewolkt
Zwaar bewolkt
 Wind van WZW
Wind: WZW 11 km/h
Temperatuur: 19°C
Dauwpunt: 16°C
Vochtigheid: 83%
Barometer: 1020 hPa
Clouds: Zwaar bewolkt
Visibility: 10 km
Cloud details: Gedeeltelijk bewolkt 457 m
Meestal bewolkt 579 m
Zwaar bewolkt 671 m
2018/06/18 13:25 EHVK 181325Z AUTO 25006KT 210V300 9999 SCT015 BKN019 OVC022 19/16 Q1020 WHT 24012KT 9999 BKN025
 
EHGR - Gilze-Rijen Airport, Gilze-Rijen, NL
Distance from station: W 43km
Updated: 18/06/2018 15:25
Zwaar bewolkt
Zwaar bewolkt
 Wind van ZW
Wind: ZW 13 km/h
Temperatuur: 20°C
Dauwpunt: 15°C
Vochtigheid: 73%
Barometer: 1020 hPa
Clouds: Zwaar bewolkt
Visibility: 10 km
Cloud details: Meestal bewolkt 640 m
Meestal bewolkt 762 m
Zwaar bewolkt 853 m
2018/06/18 13:25 EHGR 181325Z AUTO 22007KT 180V270 9999 BKN021 BKN025 OVC028 20/15 Q1020 WHT 23007KT 9999 FEW015 OVC022
EHBK - Maastricht-Aken Airport, Beek, NL
Distance from station: ZZO 70km
Updated: 18/06/2018 15:25
Meestal bewolkt
Meestal bewolkt
 Wind van ZW
Wind: ZW 19 km/h
Temperatuur: 20°C
Dauwpunt: 15°C
Vochtigheid: 73%
Barometer: 1021 hPa
Clouds: Meestal bewolkt
Visibility: 10 km
Cloud details: Gedeeltelijk bewolkt 701 m
Meestal bewolkt 823 m
Meestal bewolkt 914 m
2018/06/18 13:25 EHBK 181325Z AUTO 23010KT 200V280 9999 SCT023 BKN027 BKN030 20/15 Q1021 NOSIG
 
EHAM - Schiphol, Amsterdam, NL
Distance from station: NNW 115km
Updated: 18/06/2018 15:25
Meestal bewolkt
Meestal bewolkt
 Wind van ZW
Wind: ZW 31 km/h
Temperatuur: 18°C
Dauwpunt: 14°C
Vochtigheid: 78%
Barometer: 1019 hPa
Clouds: Meestal bewolkt
Visibility: 10 km
Cloud details: Few Clouds 305 m
Gedeeltelijk bewolkt 518 m
Meestal bewolkt 853 m
2018/06/18 13:25 EHAM 181325Z 23017KT 9999 FEW010 SCT017 BKN028 18/14 Q1019 TEMPO BKN017